Lapseki, Turkey
Current Conditions -  °F | °C
As of 11:50 PM on Tuesday 27 Jan 2015 (Local Time) from LTBH Reporting Station
Moderate Rain Moderate Rain  
Wind Chill:   Ceiling: 2700
Heat Index:   Visibility: 1.2mi
Dew Point:   Wind: 2mph
Humidity: 100%   Direction: 50°NE
Pressure: 29.8"   Gusts: NA
Location:  40.34°N, 26.69°E
Report Text: LTBH 272050Z 05002KT 2000 R04/2000N RA BR SCT005 BKN027 OVC090 08/08 Q1009 R0421//55
Loading
Personal Weather Stations






























Interactive Weather Map New forecast layout! Learn more

10-Day Weather Forecast

Advertisements
Track Severe Weather on mobile